Time;durP1;ratioP1;P1;durP2;ratioP2;P2;SDS_P1;SDS_P2;PMS_P1;PMS_P2;Temp;Humidity;BMP_temperature;BMP_pressure;BME280_temperature;BME280_humidity;BME280_pressure;Samples;Min_cycle;Max_cycle;Signal;HPM_P1;HPM_P2
2023/05/25 00:00:17;;;;;;;11.50;4.20;;;8.90;99.90;;;;;;5122169;28;20229;-78
2023/05/25 00:02:45;;;;;;;10.73;4.37;;;8.80;99.90;;;;;;5122615;28;20177;-80
2023/05/25 00:05:11;;;;;;;8.07;3.40;;;8.80;99.90;;;;;;5121656;28;20197;-80
2023/05/25 00:07:38;;;;;;;11.97;4.20;;;8.70;99.90;;;;;;5121864;28;20166;-79
2023/05/25 00:10:05;;;;;;;7.63;3.57;;;8.70;99.90;;;;;;5121609;28;20230;-79
2023/05/25 00:12:31;;;;;;;7.37;4.00;;;8.70;99.90;;;;;;5120824;28;20222;-79
2023/05/25 00:14:57;;;;;;;5.97;3.87;;;8.70;99.90;;;;;;5120972;28;20197;-79
2023/05/25 00:17:23;;;;;;;10.53;4.00;;;8.70;99.90;;;;;;5118811;28;20182;-80
2023/05/25 00:19:49;;;;;;;8.20;4.50;;;8.70;99.90;;;;;;5120139;28;20235;-79
2023/05/25 00:22:14;;;;;;;5.47;3.37;;;8.60;99.90;;;;;;5120095;28;20181;-80
2023/05/25 00:24:40;;;;;;;7.27;3.67;;;8.60;99.90;;;;;;5121072;28;20190;-80
2023/05/25 00:27:06;;;;;;;5.90;3.73;;;8.60;99.90;;;;;;5121515;28;20178;-79
2023/05/25 00:29:32;;;;;;;6.60;3.93;;;8.60;99.90;;;;;;5119471;28;20177;-78
2023/05/25 00:31:57;;;;;;;8.10;3.57;;;8.50;99.90;;;;;;5117745;28;20524;-80
2023/05/25 00:34:23;;;;;;;8.47;3.70;;;8.50;99.90;;;;;;5119866;28;20177;-80
2023/05/25 00:36:49;;;;;;;8.03;3.70;;;8.40;99.90;;;;;;5119416;28;20268;-79
2023/05/25 00:39:18;;;;;;;5.97;4.13;;;8.40;99.90;;;;;;5119521;28;20170;-79
2023/05/25 00:41:45;;;;;;;8.27;4.40;;;8.30;99.90;;;;;;5120009;28;20280;-79
2023/05/25 00:44:13;;;;;;;7.27;3.87;;;8.30;99.90;;;;;;5121072;28;20170;-80
2023/05/25 00:46:49;;;;;;;7.40;4.00;;;8.30;99.90;;;;;;5121415;28;20562;-80
2023/05/25 00:49:17;;;;;;;6.50;3.90;;;8.10;99.90;;;;;;5121333;28;20157;-80
2023/05/25 00:51:45;;;;;;;9.03;4.50;;;8.10;99.90;;;;;;5121144;27;20646;-79
2023/05/25 00:54:13;;;;;;;8.83;4.30;;;8.00;99.90;;;;;;5120566;28;20541;-80
2023/05/25 00:56:39;;;;;;;6.20;4.00;;;8.00;99.90;;;;;;5121449;28;20185;-79
2023/05/25 00:59:06;;;;;;;7.90;4.53;;;8.00;99.90;;;;;;5122788;28;20223;-80
2023/05/25 01:01:39;;;;;;;9.47;4.40;;;8.00;99.90;;;;;;5120609;28;20197;-79
2023/05/25 01:04:09;;;;;;;8.47;3.97;;;7.90;99.90;;;;;;5120164;28;20177;-79
2023/05/25 01:06:37;;;;;;;9.07;4.40;;;7.80;99.90;;;;;;5120098;28;20239;-80
2023/05/25 01:09:04;;;;;;;7.57;4.13;;;7.80;99.90;;;;;;5120648;28;20211;-79
2023/05/25 01:11:39;;;;;;;9.33;4.27;;;7.80;99.90;;;;;;5116242;28;20182;-77
2023/05/25 01:14:05;;;;;;;12.77;5.00;;;7.80;99.90;;;;;;5120177;28;20515;-79
2023/05/25 01:16:31;;;;;;;9.27;4.40;;;7.80;99.90;;;;;;5118655;28;20666;-79
2023/05/25 01:18:57;;;;;;;8.43;4.50;;;7.80;99.90;;;;;;5120622;28;20260;-80
2023/05/25 01:21:36;;;;;;;6.67;4.30;;;7.80;99.90;;;;;;5118578;28;20346;-80
2023/05/25 01:24:22;;;;;;;9.30;4.50;;;7.80;99.90;;;;;;5120832;27;20172;-80
2023/05/25 01:26:56;;;;;;;5.97;4.43;;;7.80;99.90;;;;;;5118772;28;20265;-79
2023/05/25 01:29:24;;;;;;;5.23;3.93;;;7.80;99.90;;;;;;5118153;28;20169;-79
2023/05/25 01:31:52;;;;;;;7.27;4.43;;;7.70;99.90;;;;;;5118085;28;20607;-79
2023/05/25 01:34:20;;;;;;;10.33;5.13;;;7.80;99.90;;;;;;5118232;28;20173;-79
2023/05/25 01:36:46;;;;;;;9.43;4.80;;;7.80;99.90;;;;;;5119571;28;20200;-79
2023/05/25 01:39:11;;;;;;;11.20;4.77;;;7.80;99.90;;;;;;5120611;28;20170;-79
2023/05/25 01:41:37;;;;;;;11.87;5.00;;;7.80;99.90;;;;;;5119508;28;20765;-79
2023/05/25 01:44:03;;;;;;;9.60;4.50;;;7.80;99.90;;;;;;5119571;28;20229;-79
2023/05/25 01:46:40;;;;;;;8.50;4.70;;;7.80;99.90;;;;;;5121351;28;20189;-79
2023/05/25 01:49:23;;;;;;;9.73;4.30;;;7.80;99.90;;;;;;5120786;28;20657;-79
2023/05/25 01:52:01;;;;;;;8.33;4.73;;;7.70;99.90;;;;;;5121158;28;20192;-79
2023/05/25 01:54:36;;;;;;;8.70;4.60;;;7.70;99.90;;;;;;5120943;28;20192;-79
2023/05/25 01:57:05;;;;;;;9.23;5.27;;;7.80;99.90;;;;;;5121028;28;20164;-79
2023/05/25 01:59:32;;;;;;;6.60;4.30;;;7.70;99.90;;;;;;5120288;28;20209;-79
2023/05/25 02:01:59;;;;;;;7.07;4.80;;;7.70;99.90;;;;;;5120839;28;20260;-79
2023/05/25 02:04:26;;;;;;;12.43;4.90;;;7.60;99.90;;;;;;5120348;28;20618;-80
2023/05/25 02:06:51;;;;;;;6.70;5.03;;;7.60;99.90;;;;;;5120466;28;20173;-79
2023/05/25 02:09:17;;;;;;;7.47;4.33;;;7.60;99.90;;;;;;5120473;28;20203;-79
2023/05/25 02:11:42;;;;;;;9.27;4.60;;;7.60;99.90;;;;;;5120211;28;20169;-79
2023/05/25 02:14:09;;;;;;;11.67;4.90;;;7.60;99.90;;;;;;5120993;28;20204;-79
2023/05/25 02:16:35;;;;;;;9.93;5.13;;;7.60;99.90;;;;;;5120743;28;20193;-79
2023/05/25 02:19:00;;;;;;;12.77;4.93;;;7.60;99.90;;;;;;5120303;28;20173;-79
2023/05/25 02:21:27;;;;;;;9.60;4.27;;;7.60;99.90;;;;;;5119525;28;20198;-80
2023/05/25 02:23:56;;;;;;;8.00;5.10;;;7.50;99.90;;;;;;5119241;28;20661;-80
2023/05/25 02:26:22;;;;;;;6.73;4.40;;;7.60;99.90;;;;;;5120411;28;20192;-79
2023/05/25 02:28:50;;;;;;;5.80;4.37;;;7.60;99.90;;;;;;5119313;28;20189;-80
2023/05/25 02:31:15;;;;;;;9.83;5.10;;;7.50;99.90;;;;;;5119880;28;20622;-79
2023/05/25 02:33:41;;;;;;;8.27;4.80;;;7.50;99.90;;;;;;5120301;28;20165;-80
2023/05/25 02:36:07;;;;;;;7.67;4.70;;;7.50;99.90;;;;;;5119359;28;20610;-80
2023/05/25 02:38:32;;;;;;;7.43;4.60;;;7.50;99.90;;;;;;5122474;28;20615;-79
2023/05/25 02:40:58;;;;;;;9.13;4.73;;;7.50;99.90;;;;;;5117915;28;20197;-79
2023/05/25 02:43:23;;;;;;;9.90;4.77;;;7.50;99.90;;;;;;5119929;28;20184;-79
2023/05/25 02:45:49;;;;;;;6.73;4.83;;;7.50;99.90;;;;;;5118790;28;20199;-79
2023/05/25 02:48:14;;;;;;;6.87;4.37;;;7.50;99.90;;;;;;5120575;28;20166;-79
2023/05/25 02:50:40;;;;;;;7.10;4.67;;;7.50;99.90;;;;;;5119470;28;20192;-79
2023/05/25 02:53:05;;;;;;;7.57;5.00;;;7.50;99.90;;;;;;5121239;28;20192;-79
2023/05/25 02:55:32;;;;;;;9.23;4.90;;;7.40;99.90;;;;;;5122750;28;20201;-79
2023/05/25 02:57:58;;;;;;;10.17;4.70;;;7.50;99.90;;;;;;5123458;28;20247;-79
2023/05/25 03:00:24;;;;;;;8.87;4.77;;;7.40;99.90;;;;;;5123319;28;20589;-79
2023/05/25 03:02:50;;;;;;;11.67;4.70;;;7.40;99.90;;;;;;5123433;28;20170;-79
2023/05/25 03:05:16;;;;;;;9.27;4.57;;;7.50;99.90;;;;;;5117897;28;20615;-76
2023/05/25 03:07:42;;;;;;;8.33;4.50;;;7.50;99.90;;;;;;5114319;28;20178;-76
2023/05/25 03:10:08;;;;;;;8.07;5.20;;;7.40;99.90;;;;;;5118031;28;20199;-80
2023/05/25 03:12:34;;;;;;;9.33;4.80;;;7.50;99.90;;;;;;5121245;28;20185;-79
2023/05/25 03:15:00;;;;;;;6.97;4.50;;;7.40;99.90;;;;;;5123356;28;20208;-79
2023/05/25 03:17:25;;;;;;;12.20;4.73;;;7.40;99.90;;;;;;5123302;28;20510;-80
2023/05/25 03:19:51;;;;;;;5.27;3.83;;;7.40;99.90;;;;;;5120702;28;20219;-79
2023/05/25 03:22:16;;;;;;;6.53;4.13;;;7.40;99.90;;;;;;5120573;28;20238;-79
2023/05/25 03:24:42;;;;;;;8.83;4.33;;;7.40;99.90;;;;;;5121744;28;20265;-79
2023/05/25 03:27:07;;;;;;;7.27;4.73;;;7.40;99.90;;;;;;5123228;28;20205;-78
2023/05/25 03:29:33;;;;;;;9.73;4.00;;;7.40;99.90;;;;;;5121897;28;20220;-79
2023/05/25 03:31:59;;;;;;;7.63;3.83;;;7.40;99.90;;;;;;5121618;28;20173;-79
2023/05/25 03:34:25;;;;;;;6.77;4.43;;;7.30;99.90;;;;;;5120413;28;20169;-79
2023/05/25 03:36:53;;;;;;;6.00;4.03;;;7.30;99.90;;;;;;5122308;28;20184;-79
2023/05/25 03:39:20;;;;;;;7.60;4.10;;;7.30;99.90;;;;;;5120840;28;20181;-79
2023/05/25 03:41:46;;;;;;;8.57;4.30;;;7.30;99.90;;;;;;5121683;28;20197;-79
2023/05/25 03:44:12;;;;;;;9.80;4.67;;;7.30;99.90;;;;;;5120011;28;20174;-79
2023/05/25 03:46:37;;;;;;;10.67;4.60;;;7.30;99.90;;;;;;5119777;28;20200;-78
2023/05/25 03:49:03;;;;;;;7.50;4.03;;;7.30;99.90;;;;;;5119501;28;20228;-79
2023/05/25 03:51:28;;;;;;;8.30;4.60;;;7.20;99.90;;;;;;5121877;28;20181;-79
2023/05/25 03:53:54;;;;;;;8.73;4.47;;;7.20;99.90;;;;;;5122417;28;20176;-79
2023/05/25 03:56:20;;;;;;;8.10;4.80;;;7.20;99.90;;;;;;5120335;28;20220;-79
2023/05/25 03:58:46;;;;;;;8.93;5.07;;;7.20;99.90;;;;;;5121571;28;20176;-79
2023/05/25 04:01:12;;;;;;;7.70;4.87;;;7.20;99.90;;;;;;5119716;28;20208;-79
2023/05/25 04:03:38;;;;;;;10.00;5.20;;;7.20;99.90;;;;;;5120838;28;20169;-79
2023/05/25 04:06:03;;;;;;;12.53;4.90;;;7.30;99.90;;;;;;5120721;28;20197;-79
2023/05/25 04:08:29;;;;;;;7.77;5.47;;;7.30;99.90;;;;;;5119888;28;20169;-79
2023/05/25 04:10:55;;;;;;;8.47;4.60;;;7.30;99.90;;;;;;5120118;28;20173;-79
2023/05/25 04:13:20;;;;;;;8.57;5.30;;;7.30;99.90;;;;;;5121084;28;20176;-79
2023/05/25 04:15:46;;;;;;;15.77;5.63;;;7.30;99.90;;;;;;5120900;28;20207;-78
2023/05/25 04:18:12;;;;;;;9.03;5.87;;;7.30;99.90;;;;;;5119847;28;20223;-79
2023/05/25 04:20:37;;;;;;;8.77;6.10;;;7.40;99.90;;;;;;5119319;28;20223;-79
2023/05/25 04:23:03;;;;;;;9.13;5.47;;;7.40;99.90;;;;;;5119848;28;20541;-79
2023/05/25 04:25:28;;;;;;;12.40;5.57;;;7.40;99.90;;;;;;5121164;28;20562;-79
2023/05/25 04:27:55;;;;;;;11.70;5.70;;;7.40;99.90;;;;;;5118053;28;20545;-79
2023/05/25 04:30:21;;;;;;;8.87;5.80;;;7.40;99.90;;;;;;5118072;28;20176;-78
2023/05/25 04:32:47;;;;;;;12.23;5.33;;;7.50;99.90;;;;;;5117879;28;20199;-78
2023/05/25 04:35:15;;;;;;;6.63;4.43;;;7.50;99.90;;;;;;5119076;28;20217;-78
2023/05/25 04:37:41;;;;;;;7.23;5.40;;;7.50;99.90;;;;;;5119091;28;20174;-78
2023/05/25 04:40:12;;;;;;;8.60;5.27;;;7.50;99.90;;;;;;5120513;28;20213;-79
2023/05/25 04:42:39;;;;;;;6.87;4.97;;;7.50;99.90;;;;;;5121888;28;20275;-79
2023/05/25 04:45:08;;;;;;;11.00;5.63;;;7.60;99.90;;;;;;5120648;28;20185;-79
2023/05/25 04:47:33;;;;;;;7.93;5.40;;;7.60;99.90;;;;;;5120817;28;20702;-78
2023/05/25 04:50:00;;;;;;;10.10;5.50;;;7.60;99.90;;;;;;5120014;28;20173;-79
2023/05/25 04:52:25;;;;;;;8.87;5.17;;;7.70;99.90;;;;;;5120541;28;20193;-79
2023/05/25 04:54:52;;;;;;;9.97;5.90;;;7.70;99.90;;;;;;5119940;28;20638;-79
2023/05/25 04:57:18;;;;;;;10.87;5.63;;;7.70;99.90;;;;;;5118471;28;20531;-78
2023/05/25 04:59:43;;;;;;;10.03;5.00;;;7.80;99.90;;;;;;5117718;28;20268;-78
2023/05/25 05:02:09;;;;;;;7.97;4.83;;;7.80;99.90;;;;;;5113765;28;20192;-78
2023/05/25 05:04:36;;;;;;;9.17;4.70;;;7.80;99.90;;;;;;5096557;28;20202;-78
2023/05/25 05:07:02;;;;;;;6.80;4.33;;;7.90;99.90;;;;;;5098829;28;20166;-78
2023/05/25 05:09:27;;;;;;;8.47;4.93;;;8.00;99.90;;;;;;5100078;28;20173;-78
2023/05/25 05:11:53;;;;;;;8.40;5.43;;;8.00;99.90;;;;;;5097381;28;20550;-78
2023/05/25 05:14:19;;;;;;;6.87;4.77;;;8.10;99.90;;;;;;5112261;28;20638;-79
2023/05/25 05:16:46;;;;;;;11.90;5.23;;;8.10;99.90;;;;;;5108835;28;20178;-78
2023/05/25 05:19:12;;;;;;;7.57;4.77;;;8.20;99.90;;;;;;5103595;28;20174;-78
2023/05/25 05:21:37;;;;;;;8.03;4.80;;;8.20;99.90;;;;;;5100072;28;20219;-78
2023/05/25 05:24:03;;;;;;;8.00;5.53;;;8.30;99.90;;;;;;5120582;28;20567;-78
2023/05/25 05:26:29;;;;;;;9.17;5.13;;;8.30;99.90;;;;;;5119467;28;20646;-77
2023/05/25 05:28:54;;;;;;;8.90;6.27;;;8.40;99.90;;;;;;5114634;28;20180;-76
2023/05/25 05:31:20;;;;;;;10.03;5.77;;;8.40;99.90;;;;;;5110473;28;20272;-77
2023/05/25 05:33:46;;;;;;;11.27;5.87;;;8.50;99.90;;;;;;5104476;28;20272;-76
2023/05/25 05:36:11;;;;;;;11.23;6.37;;;8.60;99.90;;;;;;5092745;28;20216;-75
2023/05/25 05:38:39;;;;;;;12.13;7.43;;;8.60;99.90;;;;;;5097400;28;20659;-76
2023/05/25 05:41:10;;;;;;;16.20;7.60;;;8.70;99.90;;;;;;5112728;28;20227;-76
2023/05/25 05:43:35;;;;;;;13.57;7.33;;;8.80;99.90;;;;;;5113119;28;20146;-76
2023/05/25 05:46:01;;;;;;;17.20;6.70;;;8.80;99.90;;;;;;5104801;28;20220;-76
2023/05/25 05:48:26;;;;;;;14.37;8.00;;;8.90;99.90;;;;;;5112692;28;20173;-76
2023/05/25 05:50:52;;;;;;;11.00;6.93;;;9.00;99.90;;;;;;5122385;28;20173;-78
2023/05/25 05:53:17;;;;;;;13.03;7.93;;;9.10;99.90;;;;;;5108856;28;20170;-78
2023/05/25 05:55:43;;;;;;;13.27;7.63;;;9.20;99.90;;;;;;5120842;28;20209;-78
2023/05/25 05:58:08;;;;;;;21.80;8.90;;;9.20;99.90;;;;;;5114826;28;20225;-79
2023/05/25 06:00:34;;;;;;;20.63;9.47;;;9.40;99.90;;;;;;5100950;28;20202;-78
2023/05/25 06:02:59;;;;;;;21.37;10.30;;;9.50;99.90;;;;;;5101255;28;20169;-78
2023/05/25 06:05:25;;;;;;;19.27;9.83;;;9.60;99.90;;;;;;5099509;28;20603;-78
2023/05/25 06:07:51;;;;;;;19.07;9.57;;;9.60;99.90;;;;;;5100310;28;20189;-79
2023/05/25 06:10:16;;;;;;;26.47;9.87;;;9.80;99.90;;;;;;5107631;28;20173;-79
2023/05/25 06:12:42;;;;;;;17.93;9.33;;;9.80;99.90;;;;;;5122815;28;20192;-79
2023/05/25 06:15:08;;;;;;;22.33;9.80;;;9.90;99.90;;;;;;5121246;28;20577;-79
2023/05/25 06:17:34;;;;;;;21.53;10.77;;;10.00;99.90;;;;;;5114200;28;20654;-76
2023/05/25 06:20:00;;;;;;;24.37;10.27;;;10.10;99.90;;;;;;5120700;28;20200;-79
2023/05/25 06:22:27;;;;;;;19.57;10.13;;;10.10;99.90;;;;;;5122892;28;20186;-79
2023/05/25 06:24:53;;;;;;;15.33;9.13;;;10.20;99.90;;;;;;5114699;28;20198;-79
2023/05/25 06:27:18;;;;;;;19.07;8.63;;;10.20;99.90;;;;;;5101071;28;20175;-79
2023/05/25 06:29:44;;;;;;;17.27;8.67;;;10.30;99.90;;;;;;5104891;28;20596;-79
2023/05/25 06:32:09;;;;;;;16.13;8.87;;;10.30;99.90;;;;;;5105663;28;20539;-79
2023/05/25 06:34:35;;;;;;;15.07;9.07;;;10.40;99.90;;;;;;5103968;28;20177;-79
2023/05/25 06:37:01;;;;;;;22.47;8.60;;;10.40;99.90;;;;;;5103553;28;20232;-79
2023/05/25 06:39:27;;;;;;;11.23;8.37;;;10.50;99.90;;;;;;5105697;28;20167;-78
2023/05/25 06:41:52;;;;;;;12.67;8.57;;;10.60;99.90;;;;;;5105188;28;20616;-80
2023/05/25 06:44:18;;;;;;;14.43;8.77;;;10.70;99.90;;;;;;5099880;28;20352;-76
2023/05/25 06:46:43;;;;;;;17.30;8.13;;;10.70;99.90;;;;;;5095750;28;20201;-76
2023/05/25 06:49:09;;;;;;;15.33;7.77;;;10.80;99.90;;;;;;5098234;28;20261;-79
2023/05/25 06:51:36;;;;;;;14.63;7.33;;;10.80;99.90;;;;;;5113238;28;20215;-78
2023/05/25 06:54:02;;;;;;;21.17;7.63;;;10.90;99.90;;;;;;5102490;28;20204;-79
2023/05/25 06:56:27;;;;;;;16.57;7.73;;;11.00;99.90;;;;;;5120664;28;20189;-78
2023/05/25 06:58:53;;;;;;;17.07;7.73;;;11.10;99.90;;;;;;5121645;28;20665;-78
2023/05/25 07:01:18;;;;;;;14.03;6.70;;;11.20;99.90;;;;;;5118369;28;20205;-79
2023/05/25 07:03:44;;;;;;;20.03;7.23;;;11.30;99.90;;;;;;5112239;28;20269;-78
2023/05/25 07:06:11;;;;;;;14.67;6.93;;;11.40;99.90;;;;;;5123314;28;20208;-78
2023/05/25 07:08:36;;;;;;;13.10;7.03;;;11.40;99.90;;;;;;5123163;28;20239;-78
2023/05/25 07:11:02;;;;;;;10.53;6.23;;;11.40;99.90;;;;;;5123107;28;20644;-78
2023/05/25 07:13:27;;;;;;;19.60;6.73;;;11.50;99.90;;;;;;5124027;28;20252;-79
2023/05/25 07:15:53;;;;;;;11.80;6.63;;;11.60;99.90;;;;;;5124494;28;20230;-79
2023/05/25 07:18:18;;;;;;;13.73;7.20;;;11.70;99.90;;;;;;5124287;28;20196;-79
2023/05/25 07:20:44;;;;;;;19.03;8.10;;;11.80;99.90;;;;;;5124522;28;20197;-79
2023/05/25 07:23:10;;;;;;;13.43;7.30;;;11.80;99.90;;;;;;5122725;28;20193;-78
2023/05/25 07:25:40;;;;;;;16.27;6.87;;;11.90;99.90;;;;;;5118075;28;20201;-77
2023/05/25 07:28:05;;;;;;;11.47;6.37;;;12.00;99.90;;;;;;5113821;28;20253;-78
2023/05/25 07:30:31;;;;;;;14.77;6.27;;;12.10;99.90;;;;;;5101647;28;20684;-78
2023/05/25 07:32:57;;;;;;;11.30;6.40;;;12.10;99.90;;;;;;5114290;28;20185;-76
2023/05/25 07:35:23;;;;;;;16.20;6.37;;;12.20;99.90;;;;;;5120119;28;20221;-77
2023/05/25 07:37:59;;;;;;;13.93;6.17;;;12.30;99.90;;;;;;5120320;28;20186;-78
2023/05/25 07:40:25;;;;;;;10.37;5.87;;;12.30;99.90;;;;;;5119650;28;20622;-78
2023/05/25 07:42:51;;;;;;;13.00;6.00;;;12.40;99.90;;;;;;5121701;28;20189;-78
2023/05/25 07:45:17;;;;;;;8.87;5.70;;;12.50;99.90;;;;;;5106465;28;20205;-78
2023/05/25 07:47:42;;;;;;;14.50;6.40;;;12.60;99.90;;;;;;5100109;28;20170;-79
2023/05/25 07:50:08;;;;;;;13.90;5.50;;;12.70;99.90;;;;;;5099946;28;20639;-78
2023/05/25 07:52:34;;;;;;;13.43;5.77;;;12.70;99.90;;;;;;5101683;28;20677;-79
2023/05/25 07:54:59;;;;;;;13.43;5.60;;;12.80;99.90;;;;;;5100344;28;20198;-79
2023/05/25 07:57:25;;;;;;;9.93;4.93;;;12.90;99.90;;;;;;5101571;28;20178;-78
2023/05/25 07:59:51;;;;;;;13.77;5.30;;;13.00;99.90;;;;;;5099344;28;20730;-77
2023/05/25 08:02:17;;;;;;;18.13;6.07;;;13.10;1.00;;;;;;5099425;28;20193;-78
2023/05/25 08:04:42;;;;;;;17.10;5.50;;;13.10;1.00;;;;;;5099576;28;20664;-78
2023/05/25 08:07:08;;;;;;;12.20;5.77;;;13.20;1.00;;;;;;5107684;28;20272;-78
2023/05/25 08:09:33;;;;;;;16.83;5.33;;;13.20;1.00;;;;;;5119404;28;20775;-78
2023/05/25 08:12:00;;;;;;;17.10;5.63;;;13.40;1.00;;;;;;5120847;28;20248;-78
2023/05/25 08:14:25;;;;;;;12.23;4.97;;;13.40;1.00;;;;;;5118522;28;20304;-78
2023/05/25 08:16:51;;;;;;;12.57;5.13;;;13.50;1.00;;;;;;5108630;28;20178;-78
2023/05/25 08:19:17;;;;;;;13.67;5.03;;;13.50;1.00;;;;;;5121410;28;20174;-78
2023/05/25 08:21:42;;;;;;;10.97;5.63;;;13.70;1.00;;;;;;5105564;28;20267;-79
2023/05/25 08:24:08;;;;;;;12.43;5.83;;;13.80;1.00;;;;;;5113133;28;20192;-78
2023/05/25 08:26:35;;;;;;;11.47;5.97;;;13.80;1.00;;;;;;5121794;28;20200;-78
2023/05/25 08:29:02;;;;;;;10.63;6.40;;;13.90;1.00;;;;;;5121624;27;20657;-78
2023/05/25 08:31:29;;;;;;;11.17;6.17;;;14.00;1.00;;;;;;5122054;27;20174;-78
2023/05/25 08:33:54;;;;;;;12.77;6.03;;;14.10;1.00;;;;;;5120053;28;20192;-78
2023/05/25 08:36:20;;;;;;;12.27;5.63;;;14.20;99.90;;;;;;5122628;28;20193;-79
2023/05/25 08:38:45;;;;;;;15.53;5.97;;;14.30;99.90;;;;;;5121005;28;20182;-79
2023/05/25 08:41:12;;;;;;;8.57;5.90;;;14.40;99.90;;;;;;5122250;28;20197;-79
2023/05/25 08:43:37;;;;;;;9.63;6.00;;;14.50;99.90;;;;;;5121570;28;20291;-79
2023/05/25 08:46:08;;;;;;;9.57;6.17;;;14.50;99.90;;;;;;5121313;28;20229;-79
2023/05/25 08:48:35;;;;;;;11.33;5.83;;;14.70;99.90;;;;;;5123650;28;20242;-79
2023/05/25 08:51:08;;;;;;;12.00;5.80;;;14.80;99.90;;;;;;5122372;28;20605;-79
2023/05/25 08:53:36;;;;;;;11.60;5.30;;;14.80;99.90;;;;;;5121796;28;20178;-79
2023/05/25 08:56:08;;;;;;;9.43;6.13;;;14.80;99.90;;;;;;5122992;28;20716;-79
2023/05/25 08:58:39;;;;;;;10.20;5.50;;;14.70;99.90;;;;;;5122840;28;20181;-79
2023/05/25 09:01:07;;;;;;;10.90;6.27;;;14.70;99.90;;;;;;5124074;28;20182;-79
2023/05/25 09:03:33;;;;;;;9.63;6.27;;;14.70;99.90;;;;;;5123260;28;20170;-79
2023/05/25 09:05:59;;;;;;;11.80;6.33;;;14.60;99.90;;;;;;5121784;28;20197;-79
2023/05/25 09:08:26;;;;;;;10.90;6.97;;;14.60;99.90;;;;;;5121668;28;20181;-79
2023/05/25 09:10:52;;;;;;;10.80;6.53;;;14.50;99.90;;;;;;5120715;28;20565;-77
2023/05/25 09:13:18;;;;;;;10.10;5.90;;;14.50;99.90;;;;;;5112031;28;20173;-76
2023/05/25 09:15:44;;;;;;;10.03;6.40;;;14.40;99.90;;;;;;5112008;28;20250;-77
2023/05/25 09:18:09;;;;;;;9.63;6.27;;;14.40;99.90;;;;;;5113514;28;20165;-77
2023/05/25 09:20:35;;;;;;;16.40;6.20;;;14.40;99.90;;;;;;5113159;28;20221;-77
2023/05/25 09:23:02;;;;;;;9.20;5.77;;;14.70;99.90;;;;;;5113211;28;20656;-77
2023/05/25 09:25:30;;;;;;;11.53;6.80;;;14.60;99.90;;;;;;5114518;27;20690;-79
2023/05/25 09:27:59;;;;;;;10.63;6.30;;;14.80;99.90;;;;;;5121926;28;20533;-77
2023/05/25 09:30:31;;;;;;;13.30;6.90;;;15.00;99.90;;;;;;5118210;28;20169;-79
2023/05/25 09:33:08;;;;;;;9.60;7.47;;;15.10;99.90;;;;;;5121966;28;20165;-79
2023/05/25 09:35:34;;;;;;;8.47;6.27;;;15.10;99.90;;;;;;5124397;28;20242;-79
2023/05/25 09:38:00;;;;;;;11.67;7.00;;;15.20;99.90;;;;;;5122867;28;20589;-79
2023/05/25 09:40:25;;;;;;;11.97;7.20;;;15.10;99.90;;;;;;5124410;28;20194;-80
2023/05/25 09:42:51;;;;;;;14.73;7.97;;;15.20;99.90;;;;;;5125541;28;20178;-79
2023/05/25 09:45:16;;;;;;;12.77;8.50;;;15.30;99.90;;;;;;5124474;28;20204;-79
2023/05/25 09:47:42;;;;;;;14.20;7.57;;;15.40;99.90;;;;;;5124525;28;20199;-79
2023/05/25 09:50:08;;;;;;;9.97;7.83;;;15.30;99.90;;;;;;5119876;28;20184;-79
2023/05/25 09:52:35;;;;;;;12.43;8.13;;;15.40;99.90;;;;;;5121154;28;20215;-79
2023/05/25 09:55:01;;;;;;;11.47;7.73;;;15.40;99.90;;;;;;5120617;28;20197;-79
2023/05/25 09:57:27;;;;;;;9.57;7.57;;;15.40;99.90;;;;;;5119503;28;20230;-79
2023/05/25 09:59:53;;;;;;;12.50;7.47;;;15.40;99.90;;;;;;5121402;28;20174;-79
2023/05/25 10:02:18;;;;;;;12.80;6.90;;;15.40;99.90;;;;;;5123407;28;20181;-79
2023/05/25 10:04:45;;;;;;;8.43;5.80;;;15.40;99.90;;;;;;5125245;28;20197;-79
2023/05/25 10:07:12;;;;;;;10.03;6.50;;;15.30;99.90;;;;;;5125427;27;20173;-79
2023/05/25 10:09:44;;;;;;;10.33;5.60;;;15.40;99.90;;;;;;5107928;28;20181;-78
2023/05/25 10:12:13;;;;;;;10.30;5.77;;;15.40;99.90;;;;;;5121178;28;20162;-78
2023/05/25 10:14:40;;;;;;;8.57;5.27;;;15.50;99.90;;;;;;5106965;28;20697;-76
2023/05/25 10:17:10;;;;;;;9.53;5.80;;;15.60;99.90;;;;;;5100222;28;20494;-78
2023/05/25 10:20:04;;;;;;;10.70;5.60;;;15.60;99.90;;;;;;5101482;28;20624;-78
2023/05/25 10:22:56;;;;;;;9.60;6.43;;;15.60;99.90;;;;;;5104032;28;20205;-78
2023/05/25 10:25:45;;;;;;;9.23;6.20;;;15.60;99.90;;;;;;5106865;28;20206;-78
2023/05/25 10:28:20;;;;;;;7.40;5.80;;;15.60;99.90;;;;;;5108882;28;20184;-78
2023/05/25 10:30:48;;;;;;;8.37;5.43;;;15.60;99.90;;;;;;5123658;28;20181;-78
2023/05/25 10:33:14;;;;;;;9.93;5.70;;;15.50;99.90;;;;;;5123872;28;20673;-78
2023/05/25 10:35:41;;;;;;;8.90;5.23;;;15.60;99.90;;;;;;5121317;28;20284;-78
2023/05/25 10:38:08;;;;;;;11.53;5.30;;;15.50;99.90;;;;;;5124701;28;20172;-79
2023/05/25 10:40:35;;;;;;;13.03;5.70;;;15.70;99.90;;;;;;5123798;28;20201;-78
2023/05/25 10:43:01;;;;;;;9.43;6.27;;;15.70;99.90;;;;;;5122066;28;20622;-78
2023/05/25 10:45:27;;;;;;;8.53;6.23;;;15.60;99.90;;;;;;5122549;28;20198;-78
2023/05/25 10:47:53;;;;;;;8.30;5.50;;;15.70;99.90;;;;;;5123764;28;20715;-79
2023/05/25 10:50:25;;;;;;;9.57;6.60;;;15.80;99.90;;;;;;5122843;28;20204;-79
2023/05/25 10:53:07;;;;;;;10.60;5.83;;;15.90;99.90;;;;;;5123338;28;20241;-78
2023/05/25 10:55:51;;;;;;;8.53;5.33;;;16.00;99.90;;;;;;5119935;28;20221;-78
2023/05/25 10:58:18;;;;;;;10.67;5.70;;;16.00;99.90;;;;;;5123567;28;20166;-78
2023/05/25 11:00:58;;;;;;;14.07;6.20;;;16.20;99.90;;;;;;5123763;28;20688;-78
2023/05/25 11:03:42;;;;;;;10.20;5.60;;;16.10;67.90;;;;;;5124240;28;20154;-79
2023/05/25 11:06:09;;;;;;;7.60;5.00;;;16.10;99.90;;;;;;5122209;28;20569;-79
2023/05/25 11:08:54;;;;;;;9.53;5.70;;;16.10;99.90;;;;;;5126705;28;20193;-78
2023/05/25 11:11:21;;;;;;;8.03;5.20;;;16.20;99.90;;;;;;5119866;28;20529;-76
2023/05/25 11:13:48;;;;;;;9.13;6.57;;;16.30;99.90;;;;;;5113534;28;20595;-76
2023/05/25 11:17:02;;;;;;;6.90;5.30;;;16.30;99.90;;;;;;5094230;28;20578;-76
2023/05/25 11:20:01;;;;;;;7.60;5.37;;;16.30;92.50;;;;;;5097682;28;20568;-79
2023/05/25 11:22:36;;;;;;;8.43;6.10;;;16.20;99.90;;;;;;5102518;28;20193;-79
2023/05/25 11:25:22;;;;;;;9.10;6.73;;;16.30;99.90;;;;;;5112071;28;20197;-79
2023/05/25 11:27:53;;;;;;;10.33;7.10;;;16.30;99.90;;;;;;5121239;28;20322;-79
2023/05/25 11:30:18;;;;;;;8.00;6.10;;;16.40;99.90;;;;;;5121482;28;20181;-78
2023/05/25 11:32:49;;;;;;;8.60;5.40;;;16.40;99.90;;;;;;5123738;28;20655;-79
2023/05/25 11:35:14;;;;;;;10.97;5.60;;;16.50;99.90;;;;;;5120111;28;20223;-79
2023/05/25 11:37:48;;;;;;;7.80;5.00;;;16.60;63.40;;;;;;5121242;28;20538;-79
2023/05/25 11:40:13;;;;;;;8.17;4.90;;;16.60;99.90;;;;;;5121811;28;20202;-78
2023/05/25 11:42:40;;;;;;;9.27;4.90;;;16.50;99.90;;;;;;5121732;28;20215;-78
2023/05/25 11:45:10;;;;;;;8.40;4.53;;;16.60;99.90;;;;;;5122678;28;20555;-79
2023/05/25 11:47:35;;;;;;;7.80;4.60;;;16.50;71.90;;;;;;5122222;28;20173;-78
2023/05/25 11:50:01;;;;;;;8.47;4.60;;;16.40;63.40;;;;;;5122466;28;20749;-79
2023/05/25 11:52:27;;;;;;;9.20;4.80;;;16.50;99.90;;;;;;5122534;28;20180;-78
2023/05/25 11:54:52;;;;;;;10.30;4.10;;;16.50;99.90;;;;;;5121856;28;20204;-79
2023/05/25 11:57:23;;;;;;;7.30;4.33;;;16.40;61.30;;;;;;5122258;28;20168;-76
2023/05/25 12:00:05;;;;;;;11.03;4.63;;;16.30;95.30;;;;;;5121812;28;20530;-78
2023/05/25 12:02:37;;;;;;;11.10;4.33;;;16.30;99.90;;;;;;5121434;28;20174;-79
2023/05/25 12:05:03;;;;;;;11.47;4.83;;;16.20;99.90;;;;;;5122636;28;20201;-79
2023/05/25 12:07:30;;;;;;;11.47;4.93;;;16.40;99.90;;;;;;5123675;28;20206;-79
2023/05/25 12:10:11;;;;;;;7.00;4.33;;;16.50;99.90;;;;;;5121420;28;20268;-78
2023/05/25 12:12:41;;;;;;;11.50;4.53;;;16.50;99.90;;;;;;5121231;28;20173;-79
2023/05/25 12:15:09;;;;;;;8.27;4.30;;;16.50;99.90;;;;;;5121576;28;20219;-79
2023/05/25 12:17:35;;;;;;;8.10;4.63;;;16.40;88.10;;;;;;5119675;27;20634;-77
2023/05/25 12:20:01;;;;;;;12.33;4.80;;;16.30;78.50;;;;;;5114207;28;20203;-76
2023/05/25 12:22:27;;;;;;;8.73;5.07;;;16.40;99.90;;;;;;5112816;28;20221;-77
2023/05/25 12:24:52;;;;;;;9.77;5.00;;;16.40;99.90;;;;;;5113767;28;20213;-76
2023/05/25 12:27:19;;;;;;;13.77;5.10;;;16.40;99.90;;;;;;5117983;28;20684;-78
2023/05/25 12:29:46;;;;;;;10.23;5.13;;;16.40;99.90;;;;;;5121765;28;20193;-79
2023/05/25 12:32:12;;;;;;;9.27;5.40;;;16.50;99.90;;;;;;5120674;28;20173;-79
2023/05/25 12:34:38;;;;;;;11.27;5.63;;;16.50;99.90;;;;;;5120476;28;20193;-79
2023/05/25 12:37:03;;;;;;;9.63;5.47;;;16.60;99.90;;;;;;5120684;28;20176;-79
2023/05/25 12:39:29;;;;;;;9.93;5.57;;;16.70;99.90;;;;;;5122704;28;20170;-78
2023/05/25 12:41:59;;;;;;;11.03;4.77;;;16.80;91.50;;;;;;5121221;28;20250;-79
2023/05/25 12:44:32;;;;;;;9.97;5.17;;;16.90;62.50;;;;;;5123514;28;20162;-79
2023/05/25 12:47:21;;;;;;;8.90;5.13;;;17.10;47.40;;;;;;5119005;28;20214;-78
2023/05/25 12:49:50;;;;;;;7.80;4.60;;;17.30;1.00;;;;;;5117024;28;20166;-78